createdAt,value
2023-04-09T00:00:14.899Z,8.78
2023-04-09T00:01:16.386Z,8.79
2023-04-09T00:02:17.830Z,8.77
2023-04-09T00:03:19.361Z,8.76
2023-04-09T00:04:22.439Z,8.76
2023-04-09T00:05:23.914Z,8.75
2023-04-09T00:06:25.939Z,8.76
2023-04-09T00:07:28.074Z,8.74
2023-04-09T00:08:29.622Z,8.75
2023-04-09T00:09:31.163Z,8.74
2023-04-09T00:10:32.645Z,8.72
2023-04-09T00:11:34.213Z,8.70
2023-04-09T00:12:35.727Z,8.66
2023-04-09T00:13:39.545Z,8.65
2023-04-09T00:14:41.472Z,8.69
2023-04-09T00:15:42.904Z,8.72
2023-04-09T00:16:44.999Z,8.72
2023-04-09T00:17:46.566Z,8.72
2023-04-09T00:18:48.101Z,8.71
2023-04-09T00:19:49.595Z,8.66
2023-04-09T00:20:51.355Z,8.64
2023-04-09T00:21:53.389Z,8.64
2023-04-09T00:22:56.420Z,8.64
2023-04-09T00:23:57.943Z,8.63
2023-04-09T00:24:59.428Z,8.63
2023-04-09T00:26:01.322Z,8.64
2023-04-09T00:27:02.769Z,8.65
2023-04-09T00:28:04.256Z,8.66
2023-04-09T00:29:06.065Z,8.65
2023-04-09T00:30:08.759Z,8.65
2023-04-09T00:31:10.968Z,8.65
2023-04-09T00:32:12.508Z,8.63
2023-04-09T00:33:13.966Z,8.64
2023-04-09T00:34:15.943Z,8.64
2023-04-09T00:35:17.617Z,8.65
2023-04-09T00:36:19.131Z,8.66
2023-04-09T00:37:20.647Z,8.65
2023-04-09T00:38:22.119Z,8.64
2023-04-09T00:39:24.055Z,8.63
2023-04-09T00:40:25.492Z,8.64
2023-04-09T00:41:26.953Z,8.64
2023-04-09T00:42:32.232Z,8.67
2023-04-09T00:43:34.159Z,8.71
2023-04-09T00:44:35.740Z,8.72
2023-04-09T00:45:38.103Z,8.71
2023-04-09T00:46:39.713Z,8.70
2023-04-09T00:47:43.158Z,8.68
2023-04-09T00:48:45.309Z,8.67
2023-04-09T00:49:46.746Z,8.66
2023-04-09T00:50:48.729Z,8.64
2023-04-09T00:51:50.627Z,8.66
2023-04-09T00:52:52.341Z,8.62
2023-04-09T00:53:55.300Z,8.60
2023-04-09T00:54:56.905Z,8.59
2023-04-09T00:55:58.984Z,8.55
2023-04-09T00:57:00.677Z,8.54
2023-04-09T00:58:02.817Z,8.54
2023-04-09T00:59:04.827Z,8.52
2023-04-09T01:00:07.805Z,8.52
2023-04-09T01:01:09.406Z,8.46
2023-04-09T01:02:11.258Z,8.39
2023-04-09T01:03:13.050Z,8.38
2023-04-09T01:04:15.089Z,8.40
2023-04-09T01:05:16.698Z,8.39
2023-04-09T01:06:32.553Z,8.42
2023-04-09T01:08:01.116Z,8.45
2023-04-09T01:09:15.438Z,8.46
2023-04-09T01:10:38.188Z,8.46
2023-04-09T01:12:02.592Z,8.44
2023-04-09T01:13:19.368Z,8.42
2023-04-09T01:14:37.413Z,8.37
2023-04-09T01:15:46.708Z,8.37
2023-04-09T01:16:57.313Z,8.40
2023-04-09T01:18:19.078Z,8.42
2023-04-09T01:19:43.961Z,8.40
2023-04-09T01:20:57.542Z,8.41
2023-04-09T01:22:00.444Z,8.43
2023-04-09T01:23:14.096Z,8.45
2023-04-09T01:24:39.372Z,8.51
2023-04-09T01:25:53.472Z,8.49
2023-04-09T01:27:06.804Z,8.49
2023-04-09T01:28:26.171Z,8.48
2023-04-09T01:29:31.681Z,8.45
2023-04-09T01:30:33.497Z,8.43
2023-04-09T01:31:38.339Z,8.43
2023-04-09T01:32:40.827Z,8.39
2023-04-09T01:33:43.325Z,8.38
2023-04-09T01:34:47.479Z,8.37
2023-04-09T01:35:50.585Z,8.41
2023-04-09T01:36:56.702Z,8.41
2023-04-09T01:37:58.458Z,8.42
2023-04-09T01:39:03.363Z,8.39
2023-04-09T01:40:05.668Z,8.40
2023-04-09T01:41:08.886Z,8.41
2023-04-09T01:42:12.751Z,8.44
2023-04-09T01:43:15.925Z,8.43
2023-04-09T01:44:18.238Z,8.45
2023-04-09T01:45:20.892Z,8.49
2023-04-09T01:46:24.454Z,8.48
2023-04-09T01:47:27.476Z,8.43
2023-04-09T01:48:31.532Z,8.42
2023-04-09T01:49:33.678Z,8.39
2023-04-09T01:50:35.657Z,8.42
2023-04-09T01:51:37.732Z,8.39
2023-04-09T01:52:39.505Z,8.41
2023-04-09T01:53:41.822Z,8.42
2023-04-09T01:54:43.769Z,8.45
2023-04-09T01:55:45.222Z,8.45
2023-04-09T01:56:48.289Z,8.48
2023-04-09T01:57:49.727Z,8.48
2023-04-09T01:58:52.942Z,8.49
2023-04-09T01:59:55.185Z,8.48
2023-04-09T02:01:03.525Z,8.48
2023-04-09T02:02:12.287Z,8.42
2023-04-09T02:03:21.797Z,8.40
2023-04-09T02:04:32.682Z,8.39
2023-04-09T02:05:41.795Z,8.37
2023-04-09T02:07:01.470Z,8.42
2023-04-09T02:08:05.593Z,8.41
2023-04-09T02:09:09.092Z,8.43
2023-04-09T02:10:13.192Z,8.35
2023-04-09T02:11:16.368Z,8.34
2023-04-09T02:12:19.647Z,8.30
2023-04-09T02:13:21.984Z,8.28
2023-04-09T02:14:26.551Z,8.29
2023-04-09T02:15:28.995Z,8.30
2023-04-09T02:16:32.193Z,8.29
2023-04-09T02:17:33.929Z,8.26
2023-04-09T02:18:35.434Z,8.22
2023-04-09T02:19:44.994Z,8.20
2023-04-09T02:20:46.412Z,8.24
2023-04-09T02:21:47.914Z,8.19
2023-04-09T02:22:49.373Z,8.21
2023-04-09T02:23:51.036Z,8.24
2023-04-09T02:24:52.475Z,8.24
2023-04-09T02:25:54.349Z,8.23
2023-04-09T02:26:55.858Z,8.23
2023-04-09T02:27:57.296Z,8.19
2023-04-09T02:28:58.728Z,8.17
2023-04-09T02:30:00.245Z,8.17
2023-04-09T02:31:01.761Z,8.15
2023-04-09T02:32:03.359Z,8.14
2023-04-09T02:33:05.211Z,8.13
2023-04-09T02:34:06.660Z,8.07
2023-04-09T02:35:08.250Z,8.11
2023-04-09T02:36:13.521Z,8.09
2023-04-09T02:37:15.064Z,8.12
2023-04-09T02:38:16.560Z,8.12
2023-04-09T02:39:17.988Z,8.15
2023-04-09T02:40:19.967Z,8.12
2023-04-09T02:41:21.441Z,8.10
2023-04-09T02:42:22.920Z,8.12
2023-04-09T02:43:24.626Z,8.13
2023-04-09T02:44:26.114Z,8.13
2023-04-09T02:45:28.019Z,8.13
2023-04-09T02:46:30.125Z,8.16
2023-04-09T02:47:31.676Z,8.14
2023-04-09T02:48:33.184Z,8.12
2023-04-09T02:49:35.180Z,8.12
2023-04-09T02:50:36.676Z,8.13
2023-04-09T02:51:38.129Z,8.08
2023-04-09T02:52:39.548Z,8.05
2023-04-09T02:53:41.768Z,8.03
2023-04-09T02:54:43.213Z,8.00
2023-04-09T02:55:44.611Z,8.00
2023-04-09T02:56:46.168Z,8.00
2023-04-09T02:57:47.609Z,7.98
2023-04-09T02:58:51.877Z,7.96
2023-04-09T02:59:53.479Z,7.93
2023-04-09T03:00:54.869Z,7.95
2023-04-09T03:01:56.355Z,7.97
2023-04-09T03:02:58.546Z,7.99
2023-04-09T03:04:01.537Z,7.96
2023-04-09T03:05:03.373Z,7.93
2023-04-09T03:06:04.869Z,7.91
2023-04-09T03:07:06.812Z,7.91
2023-04-09T03:08:08.753Z,7.88
2023-04-09T03:09:10.335Z,7.88
2023-04-09T03:10:11.742Z,7.82
2023-04-09T03:11:13.267Z,7.78
2023-04-09T03:12:14.997Z,7.77
2023-04-09T03:13:16.919Z,7.77
2023-04-09T03:14:18.388Z,7.76
2023-04-09T03:15:19.842Z,7.77
2023-04-09T03:16:21.845Z,7.76
2023-04-09T03:17:27.066Z,7.75
2023-04-09T03:18:28.633Z,7.73
2023-04-09T03:19:31.337Z,7.71
2023-04-09T03:20:32.861Z,7.70
2023-04-09T03:21:34.304Z,7.61
2023-04-09T03:22:39.315Z,7.56
2023-04-09T03:23:40.814Z,7.51
2023-04-09T03:24:42.724Z,7.47
2023-04-09T03:25:44.269Z,7.49
2023-04-09T03:26:45.818Z,7.42
2023-04-09T03:27:47.746Z,7.34
2023-04-09T03:28:49.222Z,7.35
2023-04-09T03:29:50.745Z,7.35
2023-04-09T03:30:52.803Z,7.37
2023-04-09T03:31:54.329Z,7.37
2023-04-09T03:32:55.975Z,7.35
2023-04-09T03:33:57.435Z,7.32
2023-04-09T03:34:58.838Z,7.30
2023-04-09T03:36:00.448Z,7.31
2023-04-09T03:37:01.955Z,7.26
2023-04-09T03:38:03.409Z,7.22
2023-04-09T03:39:04.923Z,7.17
2023-04-09T03:40:07.015Z,7.16
2023-04-09T03:41:08.577Z,7.10
2023-04-09T03:42:10.054Z,7.09
2023-04-09T03:43:11.525Z,7.09
2023-04-09T03:44:13.485Z,7.07
2023-04-09T03:45:14.913Z,7.00
2023-04-09T03:46:17.800Z,6.95
2023-04-09T03:47:19.285Z,6.87
2023-04-09T03:48:20.663Z,6.82
2023-04-09T03:49:22.238Z,6.81
2023-04-09T03:50:23.850Z,6.77
2023-04-09T03:51:25.295Z,6.71
2023-04-09T03:52:26.864Z,6.73
2023-04-09T03:53:28.763Z,6.69
2023-04-09T03:54:30.589Z,6.65
2023-04-09T03:55:32.203Z,6.61
2023-04-09T03:56:33.644Z,6.63
2023-04-09T03:57:35.684Z,6.67
2023-04-09T03:58:37.586Z,6.72
2023-04-09T03:59:39.112Z,6.74
2023-04-09T04:00:40.633Z,6.74
2023-04-09T04:01:42.638Z,6.71
2023-04-09T04:02:44.246Z,6.70
2023-04-09T04:03:46.018Z,6.72
2023-04-09T04:04:48.225Z,6.71
2023-04-09T04:05:49.760Z,6.63
2023-04-09T04:06:51.469Z,6.62
2023-04-09T04:07:53.364Z,6.48
2023-04-09T04:08:55.056Z,6.50
2023-04-09T04:09:56.614Z,6.47
2023-04-09T04:11:05.058Z,6.43
2023-04-09T04:12:06.551Z,6.47
2023-04-09T04:13:11.212Z,6.48
2023-04-09T04:14:12.683Z,6.50
2023-04-09T04:15:14.489Z,6.50
2023-04-09T04:16:16.088Z,6.52
2023-04-09T04:17:17.605Z,6.57
2023-04-09T04:18:19.033Z,6.61
2023-04-09T04:19:20.903Z,6.57
2023-04-09T04:20:22.343Z,6.57
2023-04-09T04:21:23.753Z,6.60
2023-04-09T04:22:26.204Z,6.61
2023-04-09T04:23:28.493Z,6.59
2023-04-09T04:24:29.918Z,6.56
2023-04-09T04:25:31.493Z,6.53
2023-04-09T04:26:33.005Z,6.53
2023-04-09T04:27:34.445Z,6.54
2023-04-09T04:28:37.425Z,6.52
2023-04-09T04:29:39.396Z,6.51
2023-04-09T04:30:43.491Z,6.50
2023-04-09T04:31:44.985Z,6.49
2023-04-09T04:32:46.487Z,6.46
2023-04-09T04:33:48.427Z,6.45
2023-04-09T04:34:50.543Z,6.44
2023-04-09T04:35:52.107Z,6.44
2023-04-09T04:36:53.556Z,6.43
2023-04-09T04:37:55.476Z,6.45
2023-04-09T04:38:56.882Z,6.47
2023-04-09T04:39:58.388Z,6.45
2023-04-09T04:40:59.843Z,6.38
2023-04-09T04:42:01.438Z,6.38
2023-04-09T04:43:03.383Z,6.42
2023-04-09T04:44:04.884Z,6.42
2023-04-09T04:45:07.036Z,6.40
2023-04-09T04:46:08.663Z,6.41
2023-04-09T04:47:10.327Z,6.40
2023-04-09T04:48:11.791Z,6.35
2023-04-09T04:49:13.196Z,6.36
2023-04-09T04:50:14.729Z,6.33
2023-04-09T04:51:16.696Z,6.33
2023-04-09T04:52:18.183Z,6.35
2023-04-09T04:53:19.625Z,6.30
2023-04-09T04:54:21.045Z,6.31
2023-04-09T04:55:22.480Z,6.33
2023-04-09T04:56:23.902Z,6.36
2023-04-09T04:57:25.481Z,6.37
2023-04-09T04:58:26.999Z,6.34
2023-04-09T04:59:28.650Z,6.23
2023-04-09T05:00:30.074Z,6.20
2023-04-09T05:01:31.742Z,6.22
2023-04-09T05:02:33.358Z,6.25
2023-04-09T05:03:35.038Z,6.27
2023-04-09T05:04:36.726Z,6.25
2023-04-09T05:05:38.210Z,6.26
2023-04-09T05:06:40.193Z,6.28
2023-04-09T05:07:41.632Z,6.26
2023-04-09T05:08:43.133Z,6.23
2023-04-09T05:09:45.071Z,6.26
2023-04-09T05:10:46.933Z,6.29
2023-04-09T05:11:48.371Z,6.31
2023-04-09T05:12:50.326Z,6.33
2023-04-09T05:13:51.770Z,6.32
2023-04-09T05:14:53.668Z,6.28
2023-04-09T05:15:55.217Z,6.30
2023-04-09T05:16:56.715Z,6.30
2023-04-09T05:17:58.434Z,6.28
2023-04-09T05:18:59.938Z,6.29
2023-04-09T05:20:01.370Z,6.29
2023-04-09T05:21:02.880Z,6.28
2023-04-09T05:22:04.935Z,6.29
2023-04-09T05:23:06.411Z,6.31
2023-04-09T05:24:07.837Z,6.34
2023-04-09T05:25:11.111Z,6.39
2023-04-09T05:26:12.588Z,6.38
2023-04-09T05:27:14.069Z,6.38
2023-04-09T05:28:16.869Z,6.41
2023-04-09T05:29:18.354Z,6.45
2023-04-09T05:30:19.890Z,6.46
2023-04-09T05:31:21.307Z,6.42
2023-04-09T05:32:22.841Z,6.44
2023-04-09T05:33:24.324Z,6.47
2023-04-09T05:34:25.819Z,6.48
2023-04-09T05:35:27.309Z,6.45
2023-04-09T05:36:28.769Z,6.45
2023-04-09T05:37:30.428Z,6.46
2023-04-09T05:38:32.404Z,6.47
2023-04-09T05:39:33.891Z,6.48
2023-04-09T05:40:35.546Z,6.50
2023-04-09T05:41:38.691Z,6.53
2023-04-09T05:42:40.318Z,6.50
2023-04-09T05:43:42.807Z,6.52
2023-04-09T05:44:44.698Z,6.50
2023-04-09T05:45:46.214Z,6.50
2023-04-09T05:46:47.726Z,6.55
2023-04-09T05:47:49.306Z,6.59
2023-04-09T05:48:51.355Z,6.59
2023-04-09T05:49:52.960Z,6.62
2023-04-09T05:50:55.633Z,6.57
2023-04-09T05:51:57.321Z,6.58
2023-04-09T05:52:58.665Z,6.61
2023-04-09T05:54:01.480Z,6.63
2023-04-09T05:55:03.278Z,6.71
2023-04-09T05:56:13.413Z,6.73
2023-04-09T05:57:14.999Z,6.80
2023-04-09T05:58:18.733Z,6.84
2023-04-09T05:59:20.735Z,6.87
2023-04-09T06:00:22.228Z,6.91
2023-04-09T06:01:23.706Z,6.93
2023-04-09T06:02:25.893Z,6.92
2023-04-09T06:03:29.254Z,7.02
2023-04-09T06:04:30.989Z,7.09
2023-04-09T06:05:33.219Z,7.13
2023-04-09T06:06:34.733Z,7.20
2023-04-09T06:07:50.213Z,7.24
2023-04-09T06:08:51.704Z,7.31
2023-04-09T06:09:53.170Z,7.33
2023-04-09T06:10:54.688Z,7.29
2023-04-09T06:11:56.144Z,7.32
2023-04-09T06:12:57.569Z,7.30
2023-04-09T06:13:59.031Z,7.39
2023-04-09T06:15:00.532Z,7.46
2023-04-09T06:16:04.761Z,7.54
2023-04-09T06:17:06.282Z,7.63
2023-04-09T06:18:07.859Z,7.73
2023-04-09T06:19:09.410Z,7.75
2023-04-09T06:20:11.286Z,7.79
2023-04-09T06:21:13.678Z,7.87
2023-04-09T06:22:15.525Z,7.96
2023-04-09T06:23:17.186Z,7.99
2023-04-09T06:24:18.653Z,7.97
2023-04-09T06:25:20.239Z,8.06
2023-04-09T06:26:21.758Z,8.18
2023-04-09T06:27:23.299Z,8.28
2023-04-09T06:28:24.950Z,8.37
2023-04-09T06:29:26.403Z,8.41
2023-04-09T06:30:27.914Z,8.46
2023-04-09T06:31:29.429Z,8.59
2023-04-09T06:32:33.642Z,8.69
2023-04-09T06:33:39.253Z,8.81
2023-04-09T06:34:40.684Z,8.88
2023-04-09T06:35:42.565Z,9.00
2023-04-09T06:36:44.575Z,9.07
2023-04-09T06:37:46.021Z,9.08
2023-04-09T06:38:47.457Z,9.15
2023-04-09T06:40:00.337Z,9.25
2023-04-09T06:41:02.649Z,9.36
2023-04-09T06:42:04.604Z,9.44
2023-04-09T06:43:06.860Z,9.58
2023-04-09T06:44:08.383Z,9.68
2023-04-09T06:45:10.216Z,9.80
2023-04-09T06:46:12.473Z,9.86
2023-04-09T06:47:13.918Z,9.90
2023-04-09T06:48:15.474Z,9.96
2023-04-09T06:49:16.896Z,10.06
2023-04-09T06:50:18.416Z,10.17
2023-04-09T06:51:19.944Z,10.20
2023-04-09T06:52:21.436Z,10.24
2023-04-09T06:53:23.459Z,10.34
2023-04-09T06:54:25.074Z,10.40
2023-04-09T06:55:27.014Z,10.48
2023-04-09T06:56:28.538Z,10.62
2023-04-09T06:57:30.000Z,10.70
2023-04-09T06:58:31.608Z,10.81
2023-04-09T06:59:33.925Z,10.92
2023-04-09T07:00:35.499Z,10.99
2023-04-09T07:01:37.837Z,11.07
2023-04-09T07:02:39.662Z,11.14
2023-04-09T07:03:41.759Z,11.23
2023-04-09T07:04:43.567Z,11.24
2023-04-09T07:05:45.119Z,11.35
2023-04-09T07:06:46.909Z,11.36
2023-04-09T07:07:48.458Z,11.44
2023-04-09T07:08:50.828Z,11.52
2023-04-09T07:09:53.462Z,11.54
2023-04-09T07:10:55.013Z,11.57
2023-04-09T07:11:56.461Z,11.62
2023-04-09T07:12:57.951Z,11.65
2023-04-09T07:13:59.817Z,11.74
2023-04-09T07:15:03.079Z,11.79
2023-04-09T07:16:04.968Z,11.90
2023-04-09T07:17:06.430Z,11.98
2023-04-09T07:18:08.122Z,12.02
2023-04-09T07:19:10.021Z,12.12
2023-04-09T07:20:11.945Z,12.27
2023-04-09T07:21:13.957Z,12.36
2023-04-09T07:22:15.453Z,12.39
2023-04-09T07:23:17.339Z,12.41
2023-04-09T07:24:18.750Z,12.53
2023-04-09T07:25:21.909Z,12.55
2023-04-09T07:26:23.380Z,12.65
2023-04-09T07:27:26.415Z,12.78
2023-04-09T07:28:28.163Z,12.89
2023-04-09T07:29:29.608Z,12.97
2023-04-09T07:30:32.183Z,13.08
2023-04-09T07:31:35.907Z,13.23
2023-04-09T07:32:38.227Z,13.28
2023-04-09T07:33:39.698Z,13.36
2023-04-09T07:34:41.928Z,13.49
2023-04-09T07:35:43.446Z,13.60
2023-04-09T07:36:44.852Z,13.68
2023-04-09T07:37:46.390Z,13.71
2023-04-09T07:38:47.863Z,13.77
2023-04-09T07:39:51.266Z,13.74
2023-04-09T07:40:53.064Z,13.79
2023-04-09T07:41:54.520Z,13.84
2023-04-09T07:42:56.104Z,13.83
2023-04-09T07:43:57.587Z,13.83
2023-04-09T07:44:59.022Z,13.81
2023-04-09T07:46:00.758Z,13.87
2023-04-09T07:47:05.882Z,13.88
2023-04-09T07:48:09.290Z,13.87
2023-04-09T07:49:10.963Z,13.91
2023-04-09T07:50:12.786Z,13.92
2023-04-09T07:51:15.324Z,13.93
2023-04-09T07:52:16.825Z,13.90
2023-04-09T07:53:18.251Z,13.90
2023-04-09T07:54:21.269Z,13.89
2023-04-09T07:55:22.855Z,13.90
2023-04-09T07:56:24.360Z,14.03
2023-04-09T07:57:26.342Z,14.12
2023-04-09T07:58:28.276Z,14.21
2023-04-09T07:59:31.531Z,14.18
2023-04-09T08:00:33.164Z,14.23
2023-04-09T08:01:34.628Z,14.32
2023-04-09T08:02:36.494Z,14.48
2023-04-09T08:03:38.142Z,14.61
2023-04-09T08:04:39.910Z,14.66
2023-04-09T08:05:41.466Z,14.51
2023-04-09T08:06:42.951Z,14.54
2023-04-09T08:07:44.415Z,14.64
2023-04-09T08:08:46.139Z,14.71
2023-04-09T08:09:47.617Z,14.82
2023-04-09T08:10:49.082Z,14.98
2023-04-09T08:11:50.641Z,15.19
2023-04-09T08:12:52.112Z,15.38
2023-04-09T08:13:54.301Z,15.52
2023-04-09T08:14:56.048Z,15.71
2023-04-09T08:16:01.181Z,16.06
2023-04-09T08:17:02.757Z,16.54
2023-04-09T08:18:04.489Z,17.22
2023-04-09T08:19:06.199Z,18.09
2023-04-09T08:20:08.245Z,18.90
2023-04-09T08:21:09.691Z,19.76
2023-04-09T08:22:11.533Z,20.51
2023-04-09T08:23:13.024Z,21.03
2023-04-09T08:24:14.975Z,21.44
2023-04-09T08:25:16.719Z,22.19
2023-04-09T08:26:18.215Z,22.96
2023-04-09T08:27:19.784Z,23.38
2023-04-09T08:28:21.731Z,24.16
2023-04-09T08:29:23.230Z,23.83
2023-04-09T08:30:25.045Z,23.73
2023-04-09T08:31:27.360Z,22.95
2023-04-09T08:32:29.244Z,22.91
2023-04-09T08:33:31.768Z,21.85
2023-04-09T08:34:33.227Z,21.84
2023-04-09T08:35:34.678Z,21.59
2023-04-09T08:36:36.245Z,21.03
2023-04-09T08:37:37.767Z,20.40
2023-04-09T08:38:39.211Z,19.56
2023-04-09T08:39:40.773Z,18.82
2023-04-09T08:40:42.361Z,18.43
2023-04-09T08:41:44.431Z,18.24
2023-04-09T08:42:47.035Z,17.99
2023-04-09T08:43:57.889Z,17.87
2023-04-09T08:45:04.032Z,17.79
2023-04-09T08:46:06.093Z,17.62
2023-04-09T08:47:11.591Z,17.45
2023-04-09T08:48:13.985Z,17.28
2023-04-09T08:49:15.742Z,17.08
2023-04-09T08:50:17.314Z,16.77
2023-04-09T08:51:21.044Z,16.56
2023-04-09T08:52:32.659Z,16.43
2023-04-09T08:53:36.153Z,16.34
2023-04-09T08:54:37.982Z,16.19
2023-04-09T08:55:39.464Z,16.15
2023-04-09T08:56:40.959Z,16.04
2023-04-09T08:57:44.025Z,15.88
2023-04-09T08:58:46.918Z,15.76
2023-04-09T08:59:48.286Z,15.61
2023-04-09T09:00:49.842Z,15.60
2023-04-09T09:02:11.239Z,15.60
2023-04-09T09:03:13.310Z,15.47
2023-04-09T09:04:15.008Z,15.26
2023-04-09T09:05:16.668Z,15.28
2023-04-09T09:06:22.490Z,15.31
2023-04-09T09:07:24.008Z,15.24
2023-04-09T09:08:26.716Z,15.14
2023-04-09T09:09:28.173Z,15.05
2023-04-09T09:10:40.984Z,15.01
2023-04-09T09:11:44.687Z,15.00
2023-04-09T09:12:46.111Z,14.85
2023-04-09T09:13:58.068Z,14.68
2023-04-09T09:15:00.045Z,14.55
2023-04-09T09:16:15.184Z,14.43
2023-04-09T09:17:17.043Z,14.33
2023-04-09T09:18:19.473Z,14.25
2023-04-09T09:19:24.354Z,14.11
2023-04-09T09:20:27.550Z,14.06
2023-04-09T09:21:30.136Z,14.09
2023-04-09T09:22:55.255Z,14.12
2023-04-09T09:23:57.579Z,14.11
2023-04-09T09:24:59.036Z,14.09
2023-04-09T09:26:00.508Z,14.12
2023-04-09T09:27:02.705Z,14.14
2023-04-09T09:28:12.058Z,14.09
2023-04-09T09:29:13.817Z,14.06
2023-04-09T09:30:26.880Z,14.09
2023-04-09T09:31:28.619Z,14.04
2023-04-09T09:32:30.392Z,14.05
2023-04-09T09:33:33.764Z,14.09
2023-04-09T09:34:35.241Z,14.15
2023-04-09T09:35:56.893Z,14.15
2023-04-09T09:36:58.456Z,14.12
2023-04-09T09:38:06.560Z,14.12
2023-04-09T09:39:12.221Z,14.02
2023-04-09T09:40:27.835Z,14.05
2023-04-09T09:41:29.630Z,14.07
2023-04-09T09:42:31.842Z,14.11
2023-04-09T09:43:51.758Z,14.07
2023-04-09T09:44:55.032Z,14.05
2023-04-09T09:45:57.344Z,14.11
2023-04-09T09:46:58.951Z,14.14
2023-04-09T09:48:00.679Z,14.18
2023-04-09T09:49:02.408Z,14.25
2023-04-09T09:50:04.195Z,14.24
2023-04-09T09:51:11.041Z,14.06
2023-04-09T09:52:12.766Z,13.95
2023-04-09T09:53:17.105Z,13.82
2023-04-09T09:54:23.470Z,13.75
2023-04-09T09:55:29.036Z,13.70
2023-04-09T09:56:33.962Z,13.52
2023-04-09T09:57:41.721Z,13.55
2023-04-09T09:58:56.409Z,13.63
2023-04-09T10:00:04.225Z,13.66
2023-04-09T10:01:11.284Z,13.66
2023-04-09T10:02:19.173Z,13.71
2023-04-09T10:03:27.649Z,13.74
2023-04-09T10:04:32.410Z,13.75
2023-04-09T10:05:36.676Z,13.75
2023-04-09T10:06:38.786Z,13.74
2023-04-09T10:07:41.044Z,13.72
2023-04-09T10:08:42.779Z,13.68
2023-04-09T10:09:48.776Z,13.66
2023-04-09T10:10:52.424Z,13.65
2023-04-09T10:11:56.009Z,13.67
2023-04-09T10:12:57.978Z,13.66
2023-04-09T10:13:59.731Z,13.58
2023-04-09T10:15:05.131Z,13.50
2023-04-09T10:16:07.594Z,13.53
2023-04-09T10:17:09.245Z,13.51
2023-04-09T10:18:10.829Z,13.54
2023-04-09T10:19:14.712Z,13.46
2023-04-09T10:20:27.531Z,13.50
2023-04-09T10:21:47.695Z,13.53
2023-04-09T10:22:51.782Z,13.70
2023-04-09T10:23:53.999Z,13.83
2023-04-09T10:24:56.295Z,13.94
2023-04-09T10:25:57.752Z,14.05
2023-04-09T10:27:10.287Z,14.20
2023-04-09T10:28:18.429Z,14.25
2023-04-09T10:29:29.169Z,14.31
2023-04-09T10:30:37.304Z,14.40
2023-04-09T10:32:03.158Z,14.59
2023-04-09T10:33:15.922Z,14.72
2023-04-09T10:34:21.405Z,14.64
2023-04-09T10:35:26.877Z,14.80
2023-04-09T10:36:31.458Z,14.95
2023-04-09T10:37:35.518Z,15.06
2023-04-09T10:38:40.605Z,15.13
2023-04-09T10:39:47.746Z,15.13
2023-04-09T10:40:50.956Z,15.14
2023-04-09T10:41:54.339Z,15.17
2023-04-09T10:42:58.124Z,15.18
2023-04-09T10:43:59.547Z,15.30
2023-04-09T10:45:12.391Z,15.27
2023-04-09T10:46:31.168Z,15.34
2023-04-09T10:47:34.556Z,15.38
2023-04-09T10:48:36.061Z,15.36
2023-04-09T10:49:41.877Z,15.41
2023-04-09T10:50:44.688Z,15.40
2023-04-09T10:51:52.175Z,15.32
2023-04-09T10:52:56.497Z,15.19
2023-04-09T10:53:57.977Z,15.18
2023-04-09T10:54:59.674Z,15.10
2023-04-09T10:56:01.387Z,15.10
2023-04-09T10:57:08.917Z,14.84
2023-04-09T10:58:13.601Z,14.93
2023-04-09T10:59:15.532Z,15.04
2023-04-09T11:00:18.800Z,15.09
2023-04-09T11:01:22.478Z,15.14
2023-04-09T11:02:26.810Z,15.20
2023-04-09T11:03:31.984Z,15.27
2023-04-09T11:04:59.308Z,15.30
2023-04-09T11:06:09.401Z,15.29
2023-04-09T11:07:11.543Z,15.27
2023-04-09T11:08:14.422Z,15.33
2023-04-09T11:09:16.233Z,15.38
2023-04-09T11:10:17.826Z,15.37
2023-04-09T11:11:26.460Z,15.40
2023-04-09T11:12:27.878Z,15.33
2023-04-09T11:13:31.081Z,15.31
2023-04-09T11:14:33.969Z,15.29
2023-04-09T11:15:36.779Z,15.23
2023-04-09T11:16:38.263Z,15.16
2023-04-09T11:17:39.783Z,15.01
2023-04-09T11:18:41.321Z,15.05
2023-04-09T11:19:44.076Z,15.13
2023-04-09T11:20:46.185Z,15.12
2023-04-09T11:21:48.404Z,15.06
2023-04-09T11:22:51.970Z,14.99
2023-04-09T11:23:53.655Z,14.97
2023-04-09T11:24:55.310Z,15.02
2023-04-09T11:25:56.825Z,15.09
2023-04-09T11:26:58.321Z,15.08
2023-04-09T11:28:02.240Z,15.06
2023-04-09T11:29:09.705Z,15.13
2023-04-09T11:30:11.509Z,15.17
2023-04-09T11:31:13.038Z,15.21
2023-04-09T11:32:14.580Z,15.23
2023-04-09T11:33:18.281Z,15.25
2023-04-09T11:34:21.134Z,15.32
2023-04-09T11:35:23.736Z,15.20
2023-04-09T11:36:27.089Z,15.16
2023-04-09T11:37:28.570Z,15.27
2023-04-09T11:38:31.357Z,15.38
2023-04-09T11:39:36.580Z,15.46
2023-04-09T11:40:47.690Z,15.53
2023-04-09T11:41:49.166Z,15.58
2023-04-09T11:42:52.617Z,15.41
2023-04-09T11:43:54.040Z,15.41
2023-04-09T11:44:55.907Z,15.52
2023-04-09T11:45:57.825Z,15.62
2023-04-09T11:47:00.021Z,15.61
2023-04-09T11:48:02.575Z,15.61
2023-04-09T11:49:04.363Z,15.50
2023-04-09T11:50:10.436Z,15.39
2023-04-09T11:51:12.370Z,15.41
2023-04-09T11:52:16.550Z,15.36
2023-04-09T11:53:19.687Z,15.21
2023-04-09T11:54:21.326Z,15.24
2023-04-09T11:55:33.583Z,15.20
2023-04-09T11:56:36.345Z,15.17
2023-04-09T11:57:41.548Z,15.14
2023-04-09T11:58:47.615Z,15.19
2023-04-09T11:59:49.149Z,15.26
2023-04-09T12:00:56.577Z,15.33
2023-04-09T12:01:58.830Z,15.41
2023-04-09T12:03:05.481Z,15.50
2023-04-09T12:04:20.941Z,15.51
2023-04-09T12:05:25.107Z,15.45
2023-04-09T12:06:27.656Z,15.48
2023-04-09T12:07:33.676Z,15.52
2023-04-09T12:08:36.323Z,15.52
2023-04-09T12:09:47.863Z,15.64
2023-04-09T12:10:50.492Z,15.68
2023-04-09T12:11:53.437Z,15.70
2023-04-09T12:12:55.274Z,15.61
2023-04-09T12:14:03.456Z,15.62
2023-04-09T12:15:12.497Z,15.75
2023-04-09T12:16:14.889Z,15.73
2023-04-09T12:17:16.530Z,15.71
2023-04-09T12:18:17.941Z,15.74
2023-04-09T12:19:21.127Z,15.73
2023-04-09T12:20:49.820Z,15.65
2023-04-09T12:21:56.352Z,15.64
2023-04-09T12:23:00.269Z,15.64
2023-04-09T12:24:01.728Z,15.62
2023-04-09T12:25:03.272Z,15.76
2023-04-09T12:26:04.941Z,15.88
2023-04-09T12:27:06.668Z,15.88
2023-04-09T12:28:09.539Z,15.88
2023-04-09T12:29:10.942Z,15.82
2023-04-09T12:30:12.473Z,16.03
2023-04-09T12:31:13.993Z,16.25
2023-04-09T12:32:15.435Z,16.39
2023-04-09T12:33:17.050Z,16.57
2023-04-09T12:34:18.537Z,16.77
2023-04-09T12:35:21.399Z,16.98
2023-04-09T12:36:23.966Z,17.23
2023-04-09T12:37:25.570Z,17.28
2023-04-09T12:38:27.255Z,17.20
2023-04-09T12:39:28.717Z,17.13
2023-04-09T12:40:30.524Z,17.09
2023-04-09T12:41:32.051Z,17.38
2023-04-09T12:42:33.581Z,17.25
2023-04-09T12:43:35.302Z,17.15
2023-04-09T12:44:37.287Z,17.06
2023-04-09T12:45:39.234Z,16.97
2023-04-09T12:46:40.740Z,17.72
2023-04-09T12:47:43.210Z,18.09
2023-04-09T12:48:44.942Z,17.64
2023-04-09T12:49:46.923Z,17.35
2023-04-09T12:50:48.616Z,16.94
2023-04-09T12:51:51.133Z,16.92
2023-04-09T12:52:52.560Z,16.72
2023-04-09T12:54:00.919Z,16.39
2023-04-09T12:55:03.446Z,16.17
2023-04-09T12:56:05.336Z,16.09
2023-04-09T12:57:08.230Z,16.00
2023-04-09T12:58:09.609Z,15.89
2023-04-09T12:59:11.302Z,15.84
2023-04-09T13:00:13.573Z,15.79
2023-04-09T13:01:15.210Z,15.71
2023-04-09T13:02:17.014Z,15.72
2023-04-09T13:03:18.863Z,15.68
2023-04-09T13:04:20.724Z,15.63
2023-04-09T13:05:22.256Z,15.54
2023-04-09T13:06:23.770Z,15.48
2023-04-09T13:07:29.152Z,15.43
2023-04-09T13:08:31.196Z,15.35
2023-04-09T13:09:32.711Z,15.28
2023-04-09T13:10:34.335Z,15.22
2023-04-09T13:11:35.773Z,15.06
2023-04-09T13:12:37.402Z,14.95
2023-04-09T13:13:40.370Z,14.80
2023-04-09T13:14:47.338Z,14.74
2023-04-09T13:15:48.785Z,14.79
2023-04-09T13:16:52.419Z,14.81
2023-04-09T13:17:54.018Z,14.84
2023-04-09T13:18:55.474Z,14.81
2023-04-09T13:19:56.959Z,14.87
2023-04-09T13:20:58.401Z,14.92
2023-04-09T13:21:59.859Z,14.95
2023-04-09T13:23:02.197Z,14.96
2023-04-09T13:24:04.929Z,15.02
2023-04-09T13:25:06.826Z,15.13
2023-04-09T13:26:08.225Z,15.41
2023-04-09T13:27:11.196Z,15.53
2023-04-09T13:28:12.782Z,15.67
2023-04-09T13:29:14.219Z,15.70
2023-04-09T13:30:16.022Z,15.75
2023-04-09T13:31:18.253Z,15.73
2023-04-09T13:32:21.871Z,15.65
2023-04-09T13:33:23.348Z,15.50
2023-04-09T13:34:25.095Z,15.49
2023-04-09T13:35:27.196Z,15.51
2023-04-09T13:36:29.343Z,15.61
2023-04-09T13:37:30.944Z,15.67
2023-04-09T13:38:32.377Z,15.74
2023-04-09T13:39:34.118Z,15.83
2023-04-09T13:40:35.715Z,15.88
2023-04-09T13:41:37.729Z,15.97
2023-04-09T13:42:39.121Z,15.96
2023-04-09T13:43:40.623Z,15.96
2023-04-09T13:44:44.673Z,15.96
2023-04-09T13:45:47.018Z,15.93
2023-04-09T13:46:48.584Z,15.77
2023-04-09T13:47:50.086Z,15.77